Langara, Aupaluk Airport (CYLA)

NameAupaluk Airport
CityLangara
CountryCanada
ICAOCYLA
IATAYPJ
Altitude37 m
CoordinatesGoogle Map
Live Air TrafficLiveATC.net
METARCYLA 222000Z 05007KT 330V120 15SM SCT250 09/03 A3010 RMK CI3 SLP197
2019-08-22 20:00:00 Wind: Northeast (50°) 3.6 m/s - Visibility: 24140.1 m - Temperature: 9 °C - Dew point: 3 °C - Humidity: 66.4% - Pressure: 1019.3 hPa
Statistics

The table below shows the detailed information of all flights to/from Langara, Aupaluk Airport (CYLA).